createdAt,value
2018-04-12T00:00:23.365Z,12.97
2018-04-12T00:01:23.387Z,13.08
2018-04-12T00:02:23.396Z,13.15
2018-04-12T00:03:23.423Z,13.22
2018-04-12T00:04:23.433Z,13.20
2018-04-12T00:05:23.456Z,13.37
2018-04-12T00:06:23.471Z,13.16
2018-04-12T00:07:23.489Z,13.20
2018-04-12T00:08:23.501Z,13.27
2018-04-12T00:09:23.520Z,13.15
2018-04-12T00:10:23.539Z,13.38
2018-04-12T00:11:23.554Z,13.31
2018-04-12T00:12:23.572Z,13.30
2018-04-12T00:13:23.590Z,13.20
2018-04-12T00:14:23.604Z,13.22
2018-04-12T00:15:23.622Z,13.53
2018-04-12T00:16:23.641Z,13.37
2018-04-12T00:17:23.664Z,13.47
2018-04-12T00:18:23.679Z,13.41
2018-04-12T00:19:23.693Z,13.49
2018-04-12T00:20:23.711Z,13.39
2018-04-12T00:21:23.737Z,13.27
2018-04-12T00:22:23.745Z,13.25
2018-04-12T00:23:23.762Z,13.44
2018-04-12T00:24:23.783Z,13.41
2018-04-12T00:25:23.802Z,13.33
2018-04-12T00:26:23.817Z,13.27
2018-04-12T00:27:23.844Z,13.25
2018-04-12T00:28:23.851Z,13.33
2018-04-12T00:29:23.869Z,13.22
2018-04-12T00:30:23.886Z,13.37
2018-04-12T00:31:23.908Z,13.38
2018-04-12T00:32:23.921Z,13.25
2018-04-12T00:33:23.939Z,13.44
2018-04-12T00:34:23.957Z,13.37
2018-04-12T00:35:23.973Z,13.44
2018-04-12T00:36:23.993Z,13.41
2018-04-12T00:37:24.010Z,13.35
2018-04-12T00:38:24.024Z,13.37
2018-04-12T00:39:24.041Z,13.31
2018-04-12T00:40:24.066Z,13.16
2018-04-12T00:41:24.083Z,13.19
2018-04-12T00:42:24.096Z,13.04
2018-04-12T00:43:24.113Z,13.20
2018-04-12T00:44:24.130Z,13.28
2018-04-12T00:45:24.148Z,13.01
2018-04-12T00:46:24.174Z,13.23
2018-04-12T00:47:24.190Z,13.25
2018-04-12T00:48:24.200Z,13.20
2018-04-12T00:49:24.271Z,13.35
2018-04-12T00:50:24.237Z,13.22
2018-04-12T00:51:24.255Z,13.35
2018-04-12T00:52:24.268Z,13.27
2018-04-12T00:53:24.304Z,13.15
2018-04-12T00:54:24.304Z,13.22
2018-04-12T00:55:24.321Z,13.15
2018-04-12T00:56:24.340Z,13.09
2018-04-12T00:57:24.357Z,13.39
2018-04-12T00:58:24.374Z,13.25
2018-04-12T00:59:24.391Z,13.16
2018-04-12T01:00:24.410Z,13.13
2018-04-12T01:01:24.431Z,13.20
2018-04-12T01:02:24.443Z,13.25
2018-04-12T01:03:24.465Z,13.23
2018-04-12T01:04:24.479Z,13.18
2018-04-12T01:05:24.496Z,13.15
2018-04-12T01:06:24.515Z,13.25
2018-04-12T01:07:24.529Z,13.23
2018-04-12T01:08:24.551Z,13.12
2018-04-12T01:09:24.568Z,13.12
2018-04-12T01:10:24.593Z,13.01
2018-04-12T01:11:24.608Z,13.08
2018-04-12T01:12:24.621Z,13.11
2018-04-12T01:13:24.636Z,13.22
2018-04-12T01:14:24.654Z,13.23
2018-04-12T01:15:24.675Z,13.28
2018-04-12T01:16:24.822Z,13.13
2018-04-12T01:17:24.708Z,13.19
2018-04-12T01:18:24.735Z,13.19
2018-04-12T01:19:24.743Z,13.23
2018-04-12T01:20:24.757Z,13.33
2018-04-12T01:21:24.783Z,13.15
2018-04-12T01:22:24.792Z,13.18
2018-04-12T01:23:24.810Z,13.15
2018-04-12T01:24:24.829Z,13.15
2018-04-12T01:25:24.847Z,13.08
2018-04-12T01:26:24.861Z,13.08
2018-04-12T01:27:24.878Z,13.27
2018-04-12T01:28:24.896Z,13.20
2018-04-12T01:29:24.922Z,13.13
2018-04-12T01:30:24.937Z,13.20
2018-04-12T01:31:24.955Z,13.19
2018-04-12T01:32:24.967Z,12.95
2018-04-12T01:33:24.982Z,13.13
2018-04-12T01:34:25.004Z,13.13
2018-04-12T01:35:25.018Z,13.16
2018-04-12T01:36:25.037Z,13.20
2018-04-12T01:37:25.054Z,13.05
2018-04-12T01:38:25.070Z,13.23
2018-04-12T01:39:25.094Z,13.23
2018-04-12T01:40:25.110Z,13.25
2018-04-12T01:41:25.128Z,13.12
2018-04-12T01:42:25.136Z,13.11
2018-04-12T01:43:25.159Z,13.16
2018-04-12T01:44:25.176Z,13.25
2018-04-12T01:45:25.193Z,13.25
2018-04-12T01:46:25.209Z,13.23
2018-04-12T01:47:25.227Z,13.05
2018-04-12T01:48:25.245Z,12.95
2018-04-12T01:49:25.260Z,13.08
2018-04-12T01:50:25.278Z,13.12
2018-04-12T01:51:25.297Z,13.09
2018-04-12T01:52:25.314Z,13.01
2018-04-12T01:53:25.330Z,13.13
2018-04-12T01:54:25.348Z,13.11
2018-04-12T01:55:25.364Z,13.25
2018-04-12T01:56:25.382Z,13.25
2018-04-12T01:57:25.404Z,13.18
2018-04-12T01:58:25.416Z,13.20
2018-04-12T01:59:25.437Z,13.15
2018-04-12T02:00:25.450Z,13.33
2018-04-12T02:01:25.473Z,13.31
2018-04-12T02:02:25.486Z,13.28
2018-04-12T02:03:25.503Z,13.12
2018-04-12T02:04:25.553Z,13.12
2018-04-12T02:05:25.539Z,13.33
2018-04-12T02:06:25.558Z,13.23
2018-04-12T02:07:25.576Z,13.19
2018-04-12T02:08:25.596Z,13.33
2018-04-12T02:09:25.616Z,13.41
2018-04-12T02:10:25.630Z,13.15
2018-04-12T02:11:25.644Z,13.25
2018-04-12T02:12:25.664Z,13.35
2018-04-12T02:13:25.681Z,13.28
2018-04-12T02:14:25.702Z,13.31
2018-04-12T02:15:25.716Z,13.46
2018-04-12T02:16:25.733Z,13.54
2018-04-12T02:17:25.752Z,13.47
2018-04-12T02:18:25.771Z,13.46
2018-04-12T02:19:25.785Z,13.54
2018-04-12T02:20:25.804Z,13.54
2018-04-12T02:21:25.825Z,13.56
2018-04-12T02:22:25.839Z,13.59
2018-04-12T02:23:25.858Z,13.50
2018-04-12T02:24:25.879Z,13.53
2018-04-12T02:25:25.893Z,13.52
2018-04-12T02:26:25.912Z,13.54
2018-04-12T02:27:25.927Z,13.38
2018-04-12T02:28:25.947Z,13.35
2018-04-12T02:29:25.965Z,13.27
2018-04-12T02:30:25.980Z,13.31
2018-04-12T02:31:25.999Z,13.01
2018-04-12T02:32:26.018Z,13.19
2018-04-12T02:33:26.043Z,13.15
2018-04-12T02:34:26.055Z,13.25
2018-04-12T02:35:26.072Z,13.30
2018-04-12T02:36:26.095Z,13.30
2018-04-12T02:37:26.108Z,13.44
2018-04-12T02:38:26.124Z,13.31
2018-04-12T02:39:26.143Z,13.03
2018-04-12T02:40:26.160Z,13.28
2018-04-12T02:41:26.178Z,13.25
2018-04-12T02:42:26.196Z,13.39
2018-04-12T02:43:26.212Z,13.38
2018-04-12T02:44:26.231Z,13.38
2018-04-12T02:45:26.251Z,13.27
2018-04-12T02:46:26.269Z,13.20
2018-04-12T02:47:26.287Z,13.37
2018-04-12T02:48:26.305Z,13.28
2018-04-12T02:49:26.324Z,13.27
2018-04-12T02:50:26.342Z,13.22
2018-04-12T02:51:26.363Z,13.27
2018-04-12T02:52:26.374Z,13.23
2018-04-12T02:53:26.392Z,13.13
2018-04-12T02:54:26.409Z,13.18
2018-04-12T02:55:26.427Z,13.30
2018-04-12T02:56:26.448Z,13.12
2018-04-12T02:57:26.462Z,13.15
2018-04-12T02:58:26.482Z,13.11
2018-04-12T02:59:26.499Z,13.00
2018-04-12T03:00:26.517Z,13.09
2018-04-12T03:01:26.536Z,12.98
2018-04-12T03:02:26.553Z,13.03
2018-04-12T03:03:26.570Z,12.90
2018-04-12T03:04:26.586Z,12.83
2018-04-12T03:05:26.605Z,12.70
2018-04-12T03:06:26.622Z,12.82
2018-04-12T03:07:26.642Z,13.00
2018-04-12T03:08:26.658Z,13.09
2018-04-12T03:09:26.673Z,13.05
2018-04-12T03:10:26.690Z,12.97
2018-04-12T03:11:26.712Z,12.79
2018-04-12T03:12:26.752Z,12.83
2018-04-12T03:13:26.744Z,12.55
2018-04-12T03:14:26.761Z,12.28
2018-04-12T03:15:26.780Z,12.64
2018-04-12T03:16:26.797Z,12.67
2018-04-12T03:17:26.816Z,12.65
2018-04-12T03:18:26.829Z,12.75
2018-04-12T03:19:26.848Z,12.55
2018-04-12T03:20:26.868Z,12.57
2018-04-12T03:21:26.883Z,12.43
2018-04-12T03:22:26.899Z,12.55
2018-04-12T03:23:26.918Z,12.43
2018-04-12T03:24:26.942Z,12.42
2018-04-12T03:25:26.953Z,12.45
2018-04-12T03:26:26.970Z,12.47
2018-04-12T03:27:26.987Z,12.45
2018-04-12T03:28:27.005Z,12.42
2018-04-12T03:29:27.022Z,12.54
2018-04-12T03:30:27.044Z,12.46
2018-04-12T03:31:27.066Z,12.32
2018-04-12T03:32:27.075Z,12.45
2018-04-12T03:33:27.091Z,12.43
2018-04-12T03:34:27.109Z,12.47
2018-04-12T03:35:27.123Z,12.43
2018-04-12T03:36:27.144Z,12.42
2018-04-12T03:37:27.160Z,12.45
2018-04-12T03:38:27.232Z,12.40
2018-04-12T03:39:27.195Z,12.15
2018-04-12T03:40:27.211Z,12.42
2018-04-12T03:41:27.232Z,12.29
2018-04-12T03:42:27.246Z,12.45
2018-04-12T03:43:27.262Z,12.29
2018-04-12T03:44:27.282Z,12.24
2018-04-12T03:45:27.300Z,12.39
2018-04-12T03:46:27.316Z,12.18
2018-04-12T03:47:27.335Z,12.32
2018-04-12T03:48:27.349Z,12.39
2018-04-12T03:49:27.406Z,12.45
2018-04-12T03:50:27.390Z,12.36
2018-04-12T03:51:27.403Z,12.20
2018-04-12T03:52:27.419Z,12.17
2018-04-12T03:53:27.437Z,11.97
2018-04-12T03:54:27.455Z,12.00
2018-04-12T03:55:27.475Z,12.00
2018-04-12T03:56:27.489Z,12.04
2018-04-12T03:57:27.503Z,12.18
2018-04-12T03:58:27.521Z,12.10
2018-04-12T03:59:27.543Z,12.12
2018-04-12T04:00:27.556Z,12.09
2018-04-12T04:01:27.572Z,12.20
2018-04-12T04:02:27.589Z,12.15
2018-04-12T04:03:27.604Z,12.29
2018-04-12T04:04:27.624Z,12.10
2018-04-12T04:05:27.641Z,12.09
2018-04-12T04:06:27.661Z,12.09
2018-04-12T04:07:27.675Z,12.21
2018-04-12T04:08:27.692Z,12.02
2018-04-12T04:09:27.708Z,12.12
2018-04-12T04:10:27.726Z,11.95
2018-04-12T04:11:27.741Z,11.95
2018-04-12T04:12:27.757Z,11.84
2018-04-12T04:13:27.778Z,12.00
2018-04-12T04:14:27.808Z,11.95
2018-04-12T04:15:27.811Z,12.00
2018-04-12T04:16:27.832Z,11.95
2018-04-12T04:17:27.852Z,12.15
2018-04-12T04:18:27.859Z,12.03
2018-04-12T04:19:27.893Z,12.09
2018-04-12T04:20:27.894Z,12.09
2018-04-12T04:21:27.915Z,12.18
2018-04-12T04:22:27.935Z,12.12
2018-04-12T04:23:27.960Z,11.80
2018-04-12T04:24:27.980Z,11.57
2018-04-12T04:25:28.008Z,11.72
2018-04-12T04:26:28.020Z,11.81
2018-04-12T04:27:28.024Z,11.78
2018-04-12T04:28:28.040Z,11.72
2018-04-12T04:29:28.050Z,11.91
2018-04-12T04:30:28.075Z,11.88
2018-04-12T04:31:28.091Z,11.97
2018-04-12T04:32:28.098Z,11.73
2018-04-12T04:33:28.117Z,11.77
2018-04-12T04:34:28.132Z,11.94
2018-04-12T04:35:28.152Z,11.83
2018-04-12T04:36:28.165Z,11.75
2018-04-12T04:37:28.191Z,11.78
2018-04-12T04:38:28.199Z,11.69
2018-04-12T04:39:28.218Z,11.72
2018-04-12T04:40:28.235Z,11.59
2018-04-12T04:41:28.250Z,11.60
2018-04-12T04:42:28.268Z,11.72
2018-04-12T04:43:28.285Z,11.62
2018-04-12T04:44:28.302Z,11.63
2018-04-12T04:45:28.320Z,11.68
2018-04-12T04:46:28.340Z,11.66
2018-04-12T04:47:28.354Z,11.59
2018-04-12T04:48:28.378Z,11.81
2018-04-12T04:49:28.406Z,11.72
2018-04-12T04:50:28.404Z,11.70
2018-04-12T04:51:28.421Z,11.68
2018-04-12T04:52:28.443Z,11.83
2018-04-12T04:53:28.455Z,11.57
2018-04-12T04:54:28.469Z,11.50
2018-04-12T04:55:28.486Z,11.51
2018-04-12T04:56:28.508Z,11.45
2018-04-12T04:57:28.523Z,11.69
2018-04-12T04:58:28.537Z,11.69
2018-04-12T04:59:28.553Z,11.70
2018-04-12T05:00:28.569Z,11.68
2018-04-12T05:01:28.635Z,11.78
2018-04-12T05:02:28.605Z,11.78
2018-04-12T05:03:28.621Z,11.59
2018-04-12T05:04:28.640Z,11.55
2018-04-12T05:05:28.656Z,11.48
2018-04-12T05:06:28.671Z,11.50
2018-04-12T05:07:28.693Z,11.63
2018-04-12T05:08:28.705Z,11.81
2018-04-12T05:09:28.727Z,11.73
2018-04-12T05:10:28.742Z,11.73
2018-04-12T05:11:28.756Z,11.68
2018-04-12T05:12:28.774Z,11.72
2018-04-12T05:13:28.793Z,11.68
2018-04-12T05:14:28.817Z,11.66
2018-04-12T05:15:28.865Z,11.69
2018-04-12T05:16:28.839Z,11.66
2018-04-12T05:17:28.859Z,11.69
2018-04-12T05:18:28.878Z,11.62
2018-04-12T05:19:28.892Z,11.68
2018-04-12T05:20:28.908Z,11.69
2018-04-12T05:21:28.924Z,11.66
2018-04-12T05:22:28.946Z,11.55
2018-04-12T05:23:28.958Z,11.70
2018-04-12T05:24:28.974Z,11.63
2018-04-12T05:25:28.992Z,11.55
2018-04-12T05:26:29.013Z,11.50
2018-04-12T05:27:29.027Z,11.65
2018-04-12T05:28:29.042Z,11.81
2018-04-12T05:29:29.060Z,11.73
2018-04-12T05:30:29.080Z,11.57
2018-04-12T05:31:29.094Z,11.78
2018-04-12T05:32:29.111Z,12.07
2018-04-12T05:33:29.128Z,11.99
2018-04-12T05:34:29.145Z,11.80
2018-04-12T05:35:29.159Z,12.04
2018-04-12T05:36:29.179Z,11.99
2018-04-12T05:37:29.195Z,11.86
2018-04-12T05:38:29.209Z,12.22
2018-04-12T05:39:29.232Z,12.17
2018-04-12T05:40:29.249Z,12.06
2018-04-12T05:41:29.262Z,12.09
2018-04-12T05:42:29.283Z,12.29
2018-04-12T05:43:29.296Z,12.03
2018-04-12T05:44:29.314Z,12.02
2018-04-12T05:45:29.339Z,12.04
2018-04-12T05:46:29.349Z,12.24
2018-04-12T05:47:29.366Z,12.20
2018-04-12T05:48:29.384Z,11.86
2018-04-12T05:49:29.397Z,12.04
2018-04-12T05:50:29.413Z,12.12
2018-04-12T05:51:29.432Z,12.10
2018-04-12T05:52:29.453Z,12.22
2018-04-12T05:53:29.468Z,12.07
2018-04-12T05:54:29.485Z,12.35
2018-04-12T05:55:29.502Z,12.28
2018-04-12T05:56:29.521Z,12.49
2018-04-12T05:57:29.536Z,12.42
2018-04-12T05:58:29.557Z,12.20
2018-04-12T05:59:29.605Z,12.18
2018-04-12T06:00:29.587Z,12.25
2018-04-12T06:01:29.605Z,12.42
2018-04-12T06:02:29.623Z,12.65
2018-04-12T06:03:29.640Z,12.76
2018-04-12T06:04:29.655Z,12.46
2018-04-12T06:05:29.675Z,12.42
2018-04-12T06:06:29.688Z,12.25
2018-04-12T06:07:29.710Z,12.32
2018-04-12T06:08:29.728Z,12.45
2018-04-12T06:09:29.745Z,12.65
2018-04-12T06:10:29.763Z,12.50
2018-04-12T06:11:29.777Z,12.64
2018-04-12T06:12:29.794Z,12.64
2018-04-12T06:13:29.816Z,12.61
2018-04-12T06:14:29.832Z,12.76
2018-04-12T06:15:29.847Z,12.35
2018-04-12T06:16:29.867Z,12.80
2018-04-12T06:17:29.883Z,12.62
2018-04-12T06:18:29.903Z,12.98
2018-04-12T06:19:29.917Z,12.95
2018-04-12T06:20:29.992Z,13.16
2018-04-12T06:21:29.957Z,13.09
2018-04-12T06:22:29.972Z,12.80
2018-04-12T06:23:29.989Z,13.39
2018-04-12T06:24:30.009Z,13.39
2018-04-12T06:25:30.025Z,13.27
2018-04-12T06:26:30.045Z,13.41
2018-04-12T06:27:30.060Z,13.72
2018-04-12T06:28:30.126Z,13.23
2018-04-12T06:29:30.129Z,13.16
2018-04-12T06:30:30.116Z,13.52
2018-04-12T06:31:30.130Z,13.83
2018-04-12T06:32:30.153Z,13.77
2018-04-12T06:33:30.169Z,13.62
2018-04-12T06:34:30.189Z,13.93
2018-04-12T06:35:30.205Z,13.87
2018-04-12T06:36:30.224Z,13.57
2018-04-12T06:37:30.243Z,13.72
2018-04-12T06:38:30.257Z,13.87
2018-04-12T06:39:30.276Z,13.44
2018-04-12T06:40:30.295Z,13.79
2018-04-12T06:41:30.316Z,13.39
2018-04-12T06:42:30.331Z,13.47
2018-04-12T06:43:30.349Z,13.70
2018-04-12T06:44:30.369Z,13.75
2018-04-12T06:45:30.392Z,13.68
2018-04-12T06:46:30.405Z,13.54
2018-04-12T06:47:30.422Z,13.28
2018-04-12T06:48:30.439Z,13.39
2018-04-12T06:49:30.461Z,13.41
2018-04-12T06:50:30.478Z,13.23
2018-04-12T06:51:30.496Z,13.56
2018-04-12T06:52:30.515Z,13.74
2018-04-12T06:53:30.537Z,13.72
2018-04-12T06:54:30.550Z,13.78
2018-04-12T06:55:30.570Z,13.53
2018-04-12T06:56:30.593Z,13.65
2018-04-12T06:57:30.606Z,13.57
2018-04-12T06:58:30.627Z,13.93
2018-04-12T06:59:30.646Z,13.96
2018-04-12T07:00:30.661Z,13.71
2018-04-12T07:01:30.680Z,13.52
2018-04-12T07:02:30.697Z,13.65
2018-04-12T07:03:30.716Z,13.37
2018-04-12T07:04:30.733Z,13.59
2018-04-12T07:05:30.751Z,13.22
2018-04-12T07:06:30.768Z,13.33
2018-04-12T07:07:30.787Z,13.52
2018-04-12T07:08:30.808Z,13.38
2018-04-12T07:09:30.824Z,13.72
2018-04-12T07:10:30.841Z,13.83
2018-04-12T07:11:30.863Z,13.93
2018-04-12T07:12:30.877Z,13.75
2018-04-12T07:13:30.897Z,13.31
2018-04-12T07:14:30.915Z,13.62
2018-04-12T07:15:30.933Z,13.63
2018-04-12T07:16:30.949Z,13.37
2018-04-12T07:17:30.971Z,13.62
2018-04-12T07:18:30.986Z,13.77
2018-04-12T07:19:31.005Z,13.83
2018-04-12T07:20:31.031Z,13.31
2018-04-12T07:21:31.042Z,13.57
2018-04-12T07:22:31.061Z,13.74
2018-04-12T07:23:31.078Z,13.97
2018-04-12T07:24:31.094Z,14.14
2018-04-12T07:25:31.114Z,14.44
2018-04-12T07:26:31.133Z,14.18
2018-04-12T07:27:31.154Z,14.40
2018-04-12T07:28:31.172Z,14.28
2018-04-12T07:29:31.193Z,15.19
2018-04-12T07:30:31.209Z,15.07
2018-04-12T07:31:31.226Z,15.44
2018-04-12T07:32:31.247Z,15.91
2018-04-12T07:33:31.264Z,16.57
2018-04-12T07:34:31.284Z,16.15
2018-04-12T07:35:31.300Z,15.91
2018-04-12T07:36:31.320Z,16.24
2018-04-12T07:37:31.341Z,16.35
2018-04-12T07:38:31.360Z,15.64
2018-04-12T07:39:31.379Z,16.43
2018-04-12T07:40:31.399Z,17.04
2018-04-12T07:41:31.429Z,17.23
2018-04-12T07:42:31.440Z,18.20
2018-04-12T07:43:31.460Z,18.70
2018-04-12T07:44:31.483Z,18.65
2018-04-12T07:45:31.506Z,19.29
2018-04-12T07:46:31.521Z,19.48
2018-04-12T07:47:31.541Z,19.63
2018-04-12T07:48:31.563Z,18.74
2018-04-12T07:49:31.623Z,18.63
2018-04-12T07:50:31.608Z,18.75
2018-04-12T07:51:31.628Z,19.31
2018-04-12T07:52:31.652Z,18.35
2018-04-12T07:53:31.678Z,17.98
2018-04-12T07:54:31.705Z,17.23
2018-04-12T07:55:31.773Z,17.02
2018-04-12T07:56:31.739Z,17.20
2018-04-12T07:57:31.763Z,17.24
2018-04-12T07:58:31.782Z,16.91
2018-04-12T07:59:31.803Z,16.83
2018-04-12T08:00:31.827Z,16.50
2018-04-12T08:01:31.846Z,16.54
2018-04-12T08:02:31.864Z,15.76
2018-04-12T08:03:31.885Z,16.05
2018-04-12T08:04:31.908Z,16.05
2018-04-12T08:05:31.930Z,15.90
2018-04-12T08:06:31.949Z,15.64
2018-04-12T08:07:31.971Z,15.75
2018-04-12T08:08:31.989Z,15.79
2018-04-12T08:09:32.010Z,15.73
2018-04-12T08:10:32.027Z,15.75
2018-04-12T08:11:32.048Z,15.82
2018-04-12T08:12:32.068Z,16.29
2018-04-12T08:13:32.088Z,16.24
2018-04-12T08:14:32.106Z,16.31
2018-04-12T08:15:32.128Z,16.10
2018-04-12T08:16:32.147Z,15.97
2018-04-12T08:17:32.167Z,15.97
2018-04-12T08:18:32.196Z,16.24
2018-04-12T08:19:32.205Z,16.38
2018-04-12T08:20:32.227Z,16.64
2018-04-12T08:21:32.247Z,16.78
2018-04-12T08:22:32.269Z,16.65
2018-04-12T08:23:32.297Z,16.60
2018-04-12T08:24:32.309Z,16.32
2018-04-12T08:25:32.329Z,16.57
2018-04-12T08:26:32.348Z,16.51
2018-04-12T08:27:32.368Z,17.05
2018-04-12T08:28:32.386Z,17.27
2018-04-12T08:29:32.405Z,17.36
2018-04-12T08:30:32.424Z,17.41
2018-04-12T08:31:32.442Z,17.68
2018-04-12T08:32:32.463Z,17.31
2018-04-12T08:33:32.484Z,16.91
2018-04-12T08:34:32.507Z,16.43
2018-04-12T08:35:32.524Z,16.47
2018-04-12T08:36:32.544Z,16.47
2018-04-12T08:37:32.566Z,16.39
2018-04-12T08:38:32.584Z,16.72
2018-04-12T08:39:32.603Z,16.86
2018-04-12T08:40:32.623Z,17.41
2018-04-12T08:41:32.649Z,17.82
2018-04-12T08:42:32.663Z,18.05
2018-04-12T08:43:32.686Z,18.10
2018-04-12T08:44:32.703Z,17.82
2018-04-12T08:45:32.725Z,17.41
2018-04-12T08:46:32.745Z,17.63
2018-04-12T08:47:32.770Z,17.51
2018-04-12T08:48:32.784Z,17.56
2018-04-12T08:49:32.805Z,16.78
2018-04-12T08:50:32.826Z,16.93
2018-04-12T08:51:32.849Z,16.93
2018-04-12T08:52:32.868Z,17.04
2018-04-12T08:53:32.886Z,17.46
2018-04-12T08:54:32.915Z,17.16
2018-04-12T08:55:32.929Z,16.99
2018-04-12T08:56:32.944Z,17.14
2018-04-12T08:57:32.970Z,16.76
2018-04-12T08:58:33.016Z,16.81
2018-04-12T08:59:33.006Z,17.54
2018-04-12T09:00:33.032Z,18.08
2018-04-12T09:01:33.054Z,18.03
2018-04-12T09:02:33.069Z,18.43
2018-04-12T09:03:33.086Z,18.43
2018-04-12T09:04:33.108Z,18.63
2018-04-12T09:05:33.134Z,18.74
2018-04-12T09:06:33.147Z,18.90
2018-04-12T09:07:33.172Z,18.23
2018-04-12T09:08:33.190Z,18.28
2018-04-12T09:09:33.217Z,18.55
2018-04-12T09:10:33.234Z,18.05
2018-04-12T09:11:33.264Z,18.03
2018-04-12T09:12:33.277Z,17.92
2018-04-12T09:13:33.296Z,17.97
2018-04-12T09:14:33.312Z,17.85
2018-04-12T09:15:33.332Z,18.07
2018-04-12T09:16:33.356Z,18.37
2018-04-12T09:17:33.376Z,17.68
2018-04-12T09:18:33.392Z,17.51
2018-04-12T09:19:33.416Z,18.15
2018-04-12T09:20:33.435Z,18.34
2018-04-12T09:21:33.456Z,18.78
2018-04-12T09:22:33.475Z,19.07
2018-04-12T09:23:33.497Z,18.98
2018-04-12T09:24:33.521Z,19.16
2018-04-12T09:25:33.539Z,18.84
2018-04-12T09:26:33.558Z,18.10
2018-04-12T09:27:33.581Z,18.05
2018-04-12T09:28:33.601Z,18.19
2018-04-12T09:29:33.620Z,18.70
2018-04-12T09:30:33.653Z,18.63
2018-04-12T09:31:33.670Z,18.44
2018-04-12T09:32:33.685Z,18.44
2018-04-12T09:33:33.705Z,18.40
2018-04-12T09:34:33.724Z,18.70
2018-04-12T09:35:33.746Z,18.84
2018-04-12T09:36:33.766Z,18.73
2018-04-12T09:37:33.786Z,18.65
2018-04-12T09:38:33.809Z,17.90
2018-04-12T09:39:33.831Z,18.29
2018-04-12T09:40:33.853Z,18.03
2018-04-12T09:41:33.869Z,18.33
2018-04-12T09:42:33.892Z,18.44
2018-04-12T09:43:33.912Z,18.34
2018-04-12T09:44:33.934Z,18.58
2018-04-12T09:45:33.952Z,18.65
2018-04-12T09:46:33.978Z,19.02
2018-04-12T09:47:34.000Z,19.37
2018-04-12T09:48:34.017Z,19.02
2018-04-12T09:49:34.035Z,18.78
2018-04-12T09:50:34.055Z,19.04
2018-04-12T09:51:34.084Z,18.60
2018-04-12T09:52:34.103Z,18.53
2018-04-12T09:53:34.117Z,18.33
2018-04-12T09:54:34.140Z,18.56
2018-04-12T09:55:34.162Z,18.18
2018-04-12T09:56:34.182Z,17.80
2018-04-12T09:57:34.199Z,17.79
2018-04-12T09:58:34.224Z,18.11
2018-04-12T09:59:34.245Z,18.03
2018-04-12T10:00:34.276Z,17.63
2018-04-12T10:01:34.284Z,17.70
2018-04-12T10:02:34.305Z,17.54
2018-04-12T10:03:34.328Z,17.41
2018-04-12T10:04:34.346Z,17.78
2018-04-12T10:05:34.368Z,18.15
2018-04-12T10:06:34.398Z,17.57
2018-04-12T10:07:34.408Z,17.87
2018-04-12T10:08:34.428Z,17.56
2018-04-12T10:09:34.454Z,17.64
2018-04-12T10:10:34.477Z,17.44
2018-04-12T10:11:34.492Z,17.27
2018-04-12T10:12:34.511Z,17.44
2018-04-12T10:13:34.529Z,17.01
2018-04-12T10:14:34.547Z,17.15
2018-04-12T10:15:34.576Z,17.02
2018-04-12T10:16:34.632Z,17.12
2018-04-12T10:17:34.610Z,17.16
2018-04-12T10:18:34.637Z,17.30
2018-04-12T10:19:34.652Z,17.11
2018-04-12T10:20:34.669Z,16.89
2018-04-12T10:21:34.744Z,16.81
2018-04-12T10:22:34.710Z,16.68
2018-04-12T10:23:34.729Z,16.97
2018-04-12T10:24:34.748Z,17.06
2018-04-12T10:25:34.807Z,16.87
2018-04-12T10:26:34.790Z,16.78
2018-04-12T10:27:34.810Z,16.87
2018-04-12T10:28:34.830Z,16.60
2018-04-12T10:29:34.851Z,16.83
2018-04-12T10:30:34.868Z,16.75
2018-04-12T10:31:34.892Z,16.65
2018-04-12T10:32:34.913Z,16.75
2018-04-12T10:33:34.939Z,16.87
2018-04-12T10:34:34.946Z,16.72
2018-04-12T10:35:34.969Z,16.99
2018-04-12T10:36:34.991Z,17.05
2018-04-12T10:37:35.007Z,17.01
2018-04-12T10:38:35.036Z,17.16
2018-04-12T10:39:35.088Z,17.16
2018-04-12T10:40:35.067Z,16.93
2018-04-12T10:41:35.096Z,16.78
2018-04-12T10:42:35.114Z,16.84
2018-04-12T10:43:35.141Z,16.86
2018-04-12T10:44:35.152Z,17.16
2018-04-12T10:45:35.168Z,16.81
2018-04-12T10:46:35.184Z,16.53
2018-04-12T10:47:35.206Z,17.01
2018-04-12T10:48:35.230Z,17.24
2018-04-12T10:49:35.250Z,16.99
2018-04-12T10:50:35.264Z,17.33
2018-04-12T10:51:35.285Z,17.46
2018-04-12T10:52:35.308Z,17.44
2018-04-12T10:53:35.327Z,17.20
2018-04-12T10:54:35.346Z,17.11
2018-04-12T10:55:35.372Z,16.91
2018-04-12T10:56:35.384Z,16.86
2018-04-12T10:57:35.403Z,17.05
2018-04-12T10:58:35.422Z,17.04
2018-04-12T10:59:35.441Z,17.20
2018-04-12T11:00:35.466Z,17.14
2018-04-12T11:01:35.482Z,17.02
2018-04-12T11:02:35.500Z,17.12
2018-04-12T11:03:35.524Z,17.46
2018-04-12T11:04:35.543Z,17.67
2018-04-12T11:05:35.562Z,17.76
2018-04-12T11:06:35.581Z,17.97
2018-04-12T11:07:35.605Z,17.63
2018-04-12T11:08:35.629Z,17.46
2018-04-12T11:09:35.641Z,17.72
2018-04-12T11:10:35.662Z,18.08
2018-04-12T11:11:35.683Z,18.28
2018-04-12T11:12:35.708Z,18.15
2018-04-12T11:13:35.723Z,18.50
2018-04-12T11:14:35.744Z,18.15
2018-04-12T11:15:35.764Z,18.05
2018-04-12T11:16:35.786Z,18.53
2018-04-12T11:17:35.803Z,18.31
2018-04-12T11:18:35.830Z,17.59
2018-04-12T11:19:35.848Z,17.70
2018-04-12T11:20:35.872Z,18.37
2018-04-12T11:21:35.888Z,18.15
2018-04-12T11:22:35.908Z,18.34
2018-04-12T11:23:35.956Z,18.43
2018-04-12T11:24:35.949Z,18.04
2018-04-12T11:25:36.002Z,18.31
2018-04-12T11:26:35.990Z,17.98
2018-04-12T11:27:36.012Z,18.03
2018-04-12T11:28:36.065Z,18.28
2018-04-12T11:29:36.052Z,17.94
2018-04-12T11:30:36.074Z,18.29
2018-04-12T11:31:36.131Z,18.60
2018-04-12T11:32:36.112Z,18.45
2018-04-12T11:33:36.135Z,18.47
2018-04-12T11:34:36.158Z,18.53
2018-04-12T11:35:36.181Z,18.71
2018-04-12T11:36:36.196Z,18.56
2018-04-12T11:37:36.216Z,18.49
2018-04-12T11:38:36.248Z,18.66
2018-04-12T11:39:36.266Z,18.78
2018-04-12T11:40:36.282Z,18.98
2018-04-12T11:41:36.300Z,19.02
2018-04-12T11:42:36.320Z,19.08
2018-04-12T11:43:36.339Z,18.77
2018-04-12T11:44:36.360Z,18.63
2018-04-12T11:45:36.380Z,18.70
2018-04-12T11:46:36.410Z,18.86
2018-04-12T11:47:36.421Z,18.58
2018-04-12T11:48:36.443Z,18.65
2018-04-12T11:49:36.477Z,18.34
2018-04-12T11:50:36.489Z,18.00
2018-04-12T11:51:36.513Z,18.45
2018-04-12T11:52:36.525Z,18.44
2018-04-12T11:53:36.543Z,18.37
2018-04-12T11:54:36.568Z,18.25
2018-04-12T11:55:36.588Z,18.59
2018-04-12T11:56:36.633Z,18.35
2018-04-12T11:57:36.628Z,18.63
2018-04-12T11:58:36.681Z,18.86
2018-04-12T11:59:36.678Z,18.80
2018-04-12T12:00:36.693Z,18.77
2018-04-12T12:01:36.712Z,18.92
2018-04-12T12:02:36.729Z,18.88
2018-04-12T12:03:36.749Z,18.80
2018-04-12T12:04:36.770Z,18.62
2018-04-12T12:05:36.790Z,18.43
2018-04-12T12:06:36.811Z,18.49
2018-04-12T12:07:36.833Z,18.78
2018-04-12T12:08:36.903Z,18.96
2018-04-12T12:09:36.877Z,18.96
2018-04-12T12:10:36.924Z,19.16
2018-04-12T12:11:36.930Z,19.31
2018-04-12T12:12:37.072Z,19.18
2018-04-12T12:13:36.958Z,18.63
2018-04-12T12:14:36.979Z,18.73
2018-04-12T12:15:36.996Z,18.98
2018-04-12T12:16:37.016Z,19.07
2018-04-12T12:17:37.101Z,19.14
2018-04-12T12:18:37.059Z,18.99
2018-04-12T12:19:37.075Z,18.96
2018-04-12T12:20:37.098Z,19.14
2018-04-12T12:21:37.119Z,18.73
2018-04-12T12:22:37.137Z,18.86
2018-04-12T12:23:37.183Z,18.81
2018-04-12T12:24:37.181Z,18.96
2018-04-12T12:25:37.201Z,19.24
2018-04-12T12:26:37.221Z,19.44
2018-04-12T12:27:37.248Z,19.52
2018-04-12T12:28:37.269Z,19.63
2018-04-12T12:29:37.285Z,19.71
2018-04-12T12:30:37.302Z,19.63
2018-04-12T12:31:37.330Z,19.16
2018-04-12T12:32:37.346Z,19.48
2018-04-12T12:33:37.366Z,19.63
2018-04-12T12:34:37.385Z,19.86
2018-04-12T12:35:37.407Z,19.40
2018-04-12T12:36:37.427Z,19.85
2018-04-12T12:37:37.451Z,20.02
2018-04-12T12:38:37.471Z,20.00
2018-04-12T12:39:37.490Z,19.89
2018-04-12T12:40:37.511Z,19.96
2018-04-12T12:41:37.535Z,19.84
2018-04-12T12:42:37.555Z,19.67
2018-04-12T12:43:37.572Z,19.91
2018-04-12T12:44:37.598Z,19.92
2018-04-12T12:45:37.613Z,20.16
2018-04-12T12:46:37.635Z,19.76
2018-04-12T12:47:37.661Z,19.79
2018-04-12T12:48:37.679Z,19.92
2018-04-12T12:49:37.700Z,20.13
2018-04-12T12:50:37.721Z,20.32
2018-04-12T12:51:37.743Z,20.13
2018-04-12T12:52:37.760Z,20.02